createdAt,value
2022-09-20T00:00:00.568Z,1010.69
2022-09-20T00:01:00.627Z,1010.67
2022-09-20T00:02:00.527Z,1010.65
2022-09-20T00:03:00.502Z,1010.68
2022-09-20T00:04:00.504Z,1010.68
2022-09-20T00:05:00.531Z,1010.68
2022-09-20T00:06:00.464Z,1010.66
2022-09-20T00:07:00.457Z,1010.65
2022-09-20T00:08:00.458Z,1010.70
2022-09-20T00:09:00.437Z,1010.69
2022-09-20T00:10:00.431Z,1010.66
2022-09-20T00:11:00.466Z,1010.68
2022-09-20T00:12:00.405Z,1010.71
2022-09-20T00:13:00.383Z,1010.71
2022-09-20T00:14:00.417Z,1010.74
2022-09-20T00:15:00.372Z,1010.73
2022-09-20T00:16:00.368Z,1010.71
2022-09-20T00:17:00.466Z,1010.70
2022-09-20T00:18:00.328Z,1010.74
2022-09-20T00:19:00.332Z,1010.71
2022-09-20T00:20:00.317Z,1010.71
2022-09-20T00:21:00.339Z,1010.70
2022-09-20T00:22:00.305Z,1010.75
2022-09-20T00:23:00.290Z,1010.68
2022-09-20T00:24:00.318Z,1010.76
2022-09-20T00:25:00.257Z,1010.70
2022-09-20T00:26:00.246Z,1010.73
2022-09-20T00:27:00.258Z,1010.76
2022-09-20T00:28:00.228Z,1010.74
2022-09-20T00:29:00.224Z,1010.68
2022-09-20T00:30:00.203Z,1010.75
2022-09-20T00:31:00.189Z,1010.69
2022-09-20T00:32:00.297Z,1010.71
2022-09-20T00:33:00.175Z,1010.71
2022-09-20T00:34:00.173Z,1010.69
2022-09-20T00:35:00.142Z,1010.68
2022-09-20T00:36:00.115Z,1010.71
2022-09-20T00:37:00.110Z,1010.70
2022-09-20T00:38:00.162Z,1010.71
2022-09-20T00:39:00.136Z,1010.73
2022-09-20T00:40:00.173Z,1010.74
2022-09-20T00:41:00.065Z,1010.75
2022-09-20T00:42:00.071Z,1010.83
2022-09-20T00:43:00.050Z,1010.75
2022-09-20T00:44:00.070Z,1010.76
2022-09-20T00:45:00.097Z,1010.74
2022-09-20T00:46:00.054Z,1010.76
2022-09-20T00:47:00.000Z,1010.82
2022-09-20T00:48:00.002Z,1010.79
2022-09-20T00:48:59.993Z,1010.77
2022-09-20T00:50:00.010Z,1010.78
2022-09-20T00:50:59.979Z,1010.79
2022-09-20T00:51:59.936Z,1010.80
2022-09-20T00:52:59.942Z,1010.78
2022-09-20T00:53:59.930Z,1010.78
2022-09-20T00:54:59.907Z,1010.83
2022-09-20T00:55:59.915Z,1010.83
2022-09-20T00:56:59.954Z,1010.78
2022-09-20T00:57:59.908Z,1010.79
2022-09-20T00:58:59.868Z,1010.82
2022-09-20T00:59:59.868Z,1010.82
2022-09-20T01:00:59.947Z,1010.83
2022-09-20T01:01:59.907Z,1010.84
2022-09-20T01:02:59.836Z,1010.82
2022-09-20T01:03:59.889Z,1010.87
2022-09-20T01:04:59.794Z,1010.85
2022-09-20T01:05:59.784Z,1010.82
2022-09-20T01:06:59.767Z,1010.81
2022-09-20T01:07:59.764Z,1010.84
2022-09-20T01:08:59.758Z,1010.83
2022-09-20T01:09:59.729Z,1010.81
2022-09-20T01:10:59.738Z,1010.88
2022-09-20T01:11:59.709Z,1010.81
2022-09-20T01:12:59.751Z,1010.85
2022-09-20T01:13:59.702Z,1010.78
2022-09-20T01:14:59.671Z,1010.85
2022-09-20T01:15:59.651Z,1010.85
2022-09-20T01:16:59.723Z,1010.83
2022-09-20T01:17:59.668Z,1010.82
2022-09-20T01:18:59.654Z,1010.82
2022-09-20T01:19:59.631Z,1010.82
2022-09-20T01:20:59.601Z,1010.83
2022-09-20T01:21:59.589Z,1010.81
2022-09-20T01:22:59.578Z,1010.77
2022-09-20T01:23:59.602Z,1010.79
2022-09-20T01:24:59.696Z,1010.84
2022-09-20T01:25:59.540Z,1010.79
2022-09-20T01:26:59.545Z,1010.76
2022-09-20T01:27:59.543Z,1010.75
2022-09-20T01:28:59.630Z,1010.77
2022-09-20T01:29:59.507Z,1010.75
2022-09-20T01:30:59.500Z,1010.74
2022-09-20T01:31:59.607Z,1010.73
2022-09-20T01:32:59.488Z,1010.73
2022-09-20T01:33:59.494Z,1010.76
2022-09-20T01:34:59.458Z,1010.76
2022-09-20T01:35:59.447Z,1010.76
2022-09-20T01:36:59.414Z,1010.75
2022-09-20T01:37:59.409Z,1010.76
2022-09-20T01:38:59.547Z,1010.78
2022-09-20T01:39:59.440Z,1010.76
2022-09-20T01:40:59.398Z,1010.76
2022-09-20T01:41:59.370Z,1010.75
2022-09-20T01:42:59.342Z,1010.77
2022-09-20T01:43:59.361Z,1010.83
2022-09-20T01:44:59.346Z,1010.76
2022-09-20T01:45:59.394Z,1010.83
2022-09-20T01:46:59.319Z,1010.80
2022-09-20T01:47:59.306Z,1010.81
2022-09-20T01:48:59.297Z,1010.81
2022-09-20T01:49:59.277Z,1010.82
2022-09-20T01:50:59.252Z,1010.82
2022-09-20T01:51:59.267Z,1010.85
2022-09-20T01:52:59.314Z,1010.84
2022-09-20T01:53:59.257Z,1010.84
2022-09-20T01:54:59.236Z,1010.86
2022-09-20T01:55:59.205Z,1010.88
2022-09-20T01:56:59.193Z,1010.88
2022-09-20T01:57:59.177Z,1010.85
2022-09-20T01:59:19.817Z,1010.85
2022-09-20T02:00:00.150Z,1010.88
2022-09-20T02:00:59.235Z,1010.87
2022-09-20T02:01:59.165Z,1010.95
2022-09-20T02:02:59.122Z,1010.92
2022-09-20T02:03:59.129Z,1010.92
2022-09-20T02:04:59.229Z,1010.98
2022-09-20T02:05:59.111Z,1010.93
2022-09-20T02:06:59.097Z,1010.91
2022-09-20T02:07:59.070Z,1010.89
2022-09-20T02:08:59.107Z,1010.91
2022-09-20T02:09:59.044Z,1010.95
2022-09-20T02:10:59.028Z,1010.93
2022-09-20T02:11:59.055Z,1010.95
2022-09-20T02:12:59.012Z,1010.96
2022-09-20T02:13:59.015Z,1010.98
2022-09-20T02:14:58.981Z,1010.95
2022-09-20T02:15:58.988Z,1010.94
2022-09-20T02:16:59.038Z,1010.96
2022-09-20T02:17:58.941Z,1010.95
2022-09-20T02:18:58.962Z,1010.94
2022-09-20T02:19:58.928Z,1010.95
2022-09-20T02:20:58.905Z,1010.97
2022-09-20T02:21:58.926Z,1010.95
2022-09-20T02:22:58.945Z,1010.99
2022-09-20T02:23:58.931Z,1010.96
2022-09-20T02:24:58.868Z,1010.96
2022-09-20T02:25:58.846Z,1010.98
2022-09-20T02:26:58.838Z,1010.97
2022-09-20T02:27:58.822Z,1011.00
2022-09-20T02:28:58.907Z,1011.01
2022-09-20T02:29:58.805Z,1011.00
2022-09-20T02:30:58.820Z,1010.97
2022-09-20T02:31:58.861Z,1011.01
2022-09-20T02:32:58.770Z,1011.01
2022-09-20T02:33:58.789Z,1011.02
2022-09-20T02:34:58.781Z,1010.98
2022-09-20T02:35:58.742Z,1011.02
2022-09-20T02:36:58.743Z,1011.07
2022-09-20T02:37:58.728Z,1011.07
2022-09-20T02:38:58.759Z,1011.07
2022-09-20T02:39:58.775Z,1011.09
2022-09-20T02:40:58.764Z,1011.05
2022-09-20T02:41:58.686Z,1011.05
2022-09-20T02:42:58.664Z,1011.09
2022-09-20T02:43:58.673Z,1011.04
2022-09-20T02:44:58.648Z,1011.09
2022-09-20T02:45:58.697Z,1011.10
2022-09-20T02:46:58.623Z,1011.10
2022-09-20T02:47:58.637Z,1011.10
2022-09-20T02:48:58.603Z,1011.09
2022-09-20T02:49:58.634Z,1011.08
2022-09-20T02:50:58.647Z,1011.07
2022-09-20T02:51:58.552Z,1011.11
2022-09-20T02:52:58.583Z,1011.09
2022-09-20T02:53:58.577Z,1011.07
2022-09-20T02:54:58.593Z,1011.05
2022-09-20T02:55:58.555Z,1011.04
2022-09-20T02:56:58.497Z,1011.03
2022-09-20T02:57:58.494Z,1011.06
2022-09-20T02:58:58.839Z,1011.07
2022-09-20T02:59:58.515Z,1011.10
2022-09-20T03:00:58.515Z,1011.05
2022-09-20T03:01:58.527Z,1011.09
2022-09-20T03:02:58.436Z,1011.11
2022-09-20T03:03:58.440Z,1011.05
2022-09-20T03:04:58.461Z,1011.11
2022-09-20T03:05:58.399Z,1011.14
2022-09-20T03:06:58.387Z,1011.19
2022-09-20T03:07:58.375Z,1011.18
2022-09-20T03:08:58.378Z,1011.16
2022-09-20T03:09:58.357Z,1011.18
2022-09-20T03:10:58.345Z,1011.17
2022-09-20T03:11:58.467Z,1011.18
2022-09-20T03:12:58.323Z,1011.18
2022-09-20T03:13:58.348Z,1011.23
2022-09-20T03:14:58.301Z,1011.20
2022-09-20T03:15:58.297Z,1011.24
2022-09-20T03:16:58.394Z,1011.25
2022-09-20T03:17:58.316Z,1011.21
2022-09-20T03:18:58.285Z,1011.19
2022-09-20T03:19:58.260Z,1011.20
2022-09-20T03:20:58.235Z,1011.20
2022-09-20T03:21:58.231Z,1011.21
2022-09-20T03:22:58.206Z,1011.19
2022-09-20T03:23:58.336Z,1011.18
2022-09-20T03:24:58.192Z,1011.29
2022-09-20T03:25:58.190Z,1011.24
2022-09-20T03:26:58.181Z,1011.31
2022-09-20T03:27:58.169Z,1011.30
2022-09-20T03:28:58.211Z,1011.30
2022-09-20T03:29:58.126Z,1011.28
2022-09-20T03:30:58.133Z,1011.34
2022-09-20T03:31:58.298Z,1011.27
2022-09-20T03:32:58.110Z,1011.31
2022-09-20T03:33:58.107Z,1011.34
2022-09-20T03:34:58.076Z,1011.36
2022-09-20T03:35:58.186Z,1011.33
2022-09-20T03:36:58.050Z,1011.38
2022-09-20T03:37:58.057Z,1011.35
2022-09-20T03:38:58.061Z,1011.37
2022-09-20T03:39:58.108Z,1011.38
2022-09-20T03:40:58.019Z,1011.36
2022-09-20T03:41:57.991Z,1011.36
2022-09-20T03:42:57.983Z,1011.39
2022-09-20T03:43:58.184Z,1011.40
2022-09-20T03:44:57.977Z,1011.37
2022-09-20T03:45:58.035Z,1011.37
2022-09-20T03:46:57.960Z,1011.39
2022-09-20T03:47:57.917Z,1011.39
2022-09-20T03:48:57.938Z,1011.42
2022-09-20T03:49:57.901Z,1011.36
2022-09-20T03:50:57.905Z,1011.38
2022-09-20T03:51:57.962Z,1011.38
2022-09-20T03:52:57.873Z,1011.32
2022-09-20T03:53:57.882Z,1011.37
2022-09-20T03:54:57.845Z,1011.37
2022-09-20T03:55:57.921Z,1011.34
2022-09-20T03:56:57.825Z,1011.36
2022-09-20T03:57:57.809Z,1011.35
2022-09-20T03:58:57.847Z,1011.41
2022-09-20T03:59:57.808Z,1011.35
2022-09-20T04:00:57.799Z,1011.37
2022-09-20T04:01:57.837Z,1011.38
2022-09-20T04:02:57.765Z,1011.40
2022-09-20T04:03:57.958Z,1011.38
2022-09-20T04:04:57.719Z,1011.40
2022-09-20T04:05:57.726Z,1011.34
2022-09-20T04:06:57.732Z,1011.40
2022-09-20T04:07:57.705Z,1011.42
2022-09-20T04:08:57.718Z,1011.44
2022-09-20T04:09:57.680Z,1011.48
2022-09-20T04:10:57.648Z,1011.50
2022-09-20T04:11:57.647Z,1011.54
2022-09-20T04:12:57.628Z,1011.54
2022-09-20T04:13:57.765Z,1011.54
2022-09-20T04:14:57.649Z,1011.58
2022-09-20T04:15:57.643Z,1011.59
2022-09-20T04:16:57.670Z,1011.58
2022-09-20T04:17:57.602Z,1011.59
2022-09-20T04:18:57.593Z,1011.60
2022-09-20T04:19:57.572Z,1011.60
2022-09-20T04:20:57.600Z,1011.62
2022-09-20T04:21:57.555Z,1011.60
2022-09-20T04:22:57.520Z,1011.59
2022-09-20T04:23:57.524Z,1011.62
2022-09-20T04:24:57.506Z,1011.63
2022-09-20T04:25:57.491Z,1011.52
2022-09-20T04:26:57.489Z,1011.55
2022-09-20T04:27:57.505Z,1011.55
2022-09-20T04:28:57.500Z,1011.61
2022-09-20T04:29:57.511Z,1011.56
2022-09-20T04:30:57.426Z,1011.55
2022-09-20T04:31:57.482Z,1011.61
2022-09-20T04:32:57.403Z,1011.59
2022-09-20T04:33:57.421Z,1011.56
2022-09-20T04:34:57.401Z,1011.55
2022-09-20T04:35:57.363Z,1011.54
2022-09-20T04:36:57.363Z,1011.57
2022-09-20T04:37:57.346Z,1011.53
2022-09-20T04:38:57.357Z,1011.62
2022-09-20T04:39:57.350Z,1011.60
2022-09-20T04:40:57.426Z,1011.58
2022-09-20T04:41:57.310Z,1011.64
2022-09-20T04:42:57.291Z,1011.61
2022-09-20T04:43:57.300Z,1011.57
2022-09-20T04:44:57.264Z,1011.57
2022-09-20T04:45:57.326Z,1011.62
2022-09-20T04:46:57.313Z,1011.60
2022-09-20T04:47:57.247Z,1011.63
2022-09-20T04:48:57.257Z,1011.60
2022-09-20T04:49:57.223Z,1011.62
2022-09-20T04:50:57.198Z,1011.61
2022-09-20T04:51:57.185Z,1011.59
2022-09-20T04:52:57.174Z,1011.58
2022-09-20T04:53:57.257Z,1011.59
2022-09-20T04:54:57.167Z,1011.61
2022-09-20T04:55:57.146Z,1011.55
2022-09-20T04:56:57.139Z,1011.57
2022-09-20T04:57:57.127Z,1011.62
2022-09-20T04:58:57.131Z,1011.60
2022-09-20T04:59:57.115Z,1011.59
2022-09-20T05:00:57.132Z,1011.63
2022-09-20T05:01:57.127Z,1011.60
2022-09-20T05:02:57.055Z,1011.66
2022-09-20T05:03:57.081Z,1011.63
2022-09-20T05:04:57.085Z,1011.62
2022-09-20T05:05:57.024Z,1011.64
2022-09-20T05:06:57.012Z,1011.66
2022-09-20T05:07:57.003Z,1011.71
2022-09-20T05:08:58.991Z,1011.69
2022-09-20T05:09:56.972Z,1011.68
2022-09-20T05:10:57.050Z,1011.71
2022-09-20T05:11:56.959Z,1011.76
2022-09-20T05:12:56.951Z,1011.76
2022-09-20T05:13:56.952Z,1011.78
2022-09-20T05:14:56.947Z,1011.79
2022-09-20T05:15:56.909Z,1011.81
2022-09-20T05:16:57.014Z,1011.83
2022-09-20T05:17:56.904Z,1011.89
2022-09-20T05:18:56.920Z,1011.83
2022-09-20T05:19:56.880Z,1011.89
2022-09-20T05:20:56.891Z,1011.90
2022-09-20T05:21:56.850Z,1011.89
2022-09-20T05:22:56.845Z,1011.87
2022-09-20T05:23:56.876Z,1011.93
2022-09-20T05:24:56.886Z,1011.93
2022-09-20T05:25:56.831Z,1011.92
2022-09-20T05:26:56.789Z,1011.92
2022-09-20T05:27:56.767Z,1011.96
2022-09-20T05:28:56.786Z,1011.93
2022-09-20T05:29:56.762Z,1011.95
2022-09-20T05:30:56.889Z,1011.99
2022-09-20T05:31:56.797Z,1011.97
2022-09-20T05:32:56.722Z,1012.01
2022-09-20T05:33:56.728Z,1012.04
2022-09-20T05:34:56.797Z,1012.00
2022-09-20T05:35:56.702Z,1012.02
2022-09-20T05:36:56.663Z,1012.03
2022-09-20T05:37:56.666Z,1012.06
2022-09-20T05:38:58.057Z,1012.06
2022-09-20T05:39:56.655Z,1012.03
2022-09-20T05:40:56.628Z,1012.05
2022-09-20T05:41:56.703Z,1012.08
2022-09-20T05:42:56.613Z,1012.04
2022-09-20T05:43:56.617Z,1012.08
2022-09-20T05:44:56.599Z,1012.14
2022-09-20T05:45:56.612Z,1012.08
2022-09-20T05:46:56.598Z,1012.13
2022-09-20T05:47:56.539Z,1012.12
2022-09-20T05:48:56.558Z,1012.18
2022-09-20T05:49:56.523Z,1012.12
2022-09-20T05:50:57.798Z,1012.19
2022-09-20T05:51:56.540Z,1012.18
2022-09-20T05:52:56.486Z,1012.18
2022-09-20T05:53:56.492Z,1012.16
2022-09-20T05:54:56.468Z,1012.19
2022-09-20T05:55:56.449Z,1012.20
2022-09-20T05:56:56.430Z,1012.21
2022-09-20T05:57:56.578Z,1012.22
2022-09-20T05:58:56.438Z,1012.26
2022-09-20T05:59:56.399Z,1012.24
2022-09-20T06:00:56.444Z,1012.25
2022-09-20T06:01:56.417Z,1012.29
2022-09-20T06:02:56.364Z,1012.33
2022-09-20T06:03:56.386Z,1012.35
2022-09-20T06:04:56.372Z,1012.35
2022-09-20T06:05:56.333Z,1012.30
2022-09-20T06:06:56.317Z,1012.36
2022-09-20T06:07:56.327Z,1012.38
2022-09-20T06:08:56.310Z,1012.37
2022-09-20T06:09:56.290Z,1012.41
2022-09-20T06:10:56.286Z,1012.42
2022-09-20T06:11:56.272Z,1012.46
2022-09-20T06:12:56.280Z,1012.42
2022-09-20T06:13:56.258Z,1012.43
2022-09-20T06:14:56.234Z,1012.49
2022-09-20T06:15:56.266Z,1012.51
2022-09-20T06:16:56.214Z,1012.46
2022-09-20T06:17:56.202Z,1012.51
2022-09-20T06:18:56.241Z,1012.51
2022-09-20T06:19:56.186Z,1012.52
2022-09-20T06:20:56.200Z,1012.51
2022-09-20T06:21:56.153Z,1012.51
2022-09-20T06:22:56.135Z,1012.54
2022-09-20T06:23:56.170Z,1012.54
2022-09-20T06:24:56.119Z,1012.52
2022-09-20T06:25:56.125Z,1012.54
2022-09-20T06:26:56.092Z,1012.52
2022-09-20T06:27:56.075Z,1012.56
2022-09-20T06:28:58.382Z,1012.52
2022-09-20T06:29:56.062Z,1012.52
2022-09-20T06:30:56.121Z,1012.53
2022-09-20T06:31:56.041Z,1012.54
2022-09-20T06:32:56.029Z,1012.55
2022-09-20T06:33:56.068Z,1012.53
2022-09-20T06:34:56.000Z,1012.54
2022-09-20T06:35:58.995Z,1012.53
2022-09-20T06:36:55.980Z,1012.54
2022-09-20T06:37:55.961Z,1012.53
2022-09-20T06:38:56.060Z,1012.58
2022-09-20T06:39:56.129Z,1012.54
2022-09-20T06:40:55.929Z,1012.60
2022-09-20T06:41:55.913Z,1012.58
2022-09-20T06:42:55.907Z,1012.63
2022-09-20T06:43:55.920Z,1012.64
2022-09-20T06:44:55.915Z,1012.59
2022-09-20T06:45:55.918Z,1012.61
2022-09-20T06:46:55.872Z,1012.62
2022-09-20T06:47:55.854Z,1012.63
2022-09-20T06:48:55.903Z,1012.70
2022-09-20T06:49:55.821Z,1012.66
2022-09-20T06:50:55.832Z,1012.65
2022-09-20T06:51:55.829Z,1012.68
2022-09-20T06:52:55.789Z,1012.65
2022-09-20T06:53:55.812Z,1012.70
2022-09-20T06:54:55.769Z,1012.67
2022-09-20T06:55:55.771Z,1012.68
2022-09-20T06:56:55.742Z,1012.70
2022-09-20T06:57:55.735Z,1012.69
2022-09-20T06:58:55.781Z,1012.65
2022-09-20T06:59:55.727Z,1012.66
2022-09-20T07:00:55.917Z,1012.72
2022-09-20T07:01:55.745Z,1012.74
2022-09-20T07:02:55.686Z,1012.74
2022-09-20T07:03:55.679Z,1012.70
2022-09-20T07:04:55.667Z,1012.77
2022-09-20T07:05:55.640Z,1012.81
2022-09-20T07:06:55.643Z,1012.82
2022-09-20T07:07:55.643Z,1012.82
2022-09-20T07:08:55.693Z,1012.79
2022-09-20T07:09:55.599Z,1012.81
2022-09-20T07:10:55.618Z,1012.81
2022-09-20T07:11:55.609Z,1012.85
2022-09-20T07:12:55.560Z,1012.84
2022-09-20T07:13:55.568Z,1012.88
2022-09-20T07:14:55.584Z,1012.87
2022-09-20T07:15:55.525Z,1012.86
2022-09-20T07:16:55.589Z,1012.90
2022-09-20T07:17:55.562Z,1012.91
2022-09-20T07:18:55.523Z,1012.91
2022-09-20T07:19:55.481Z,1012.95
2022-09-20T07:20:55.470Z,1012.95
2022-09-20T07:21:55.463Z,1012.94
2022-09-20T07:22:55.482Z,1012.94
2022-09-20T07:23:55.561Z,1012.93
2022-09-20T07:24:55.429Z,1012.95
2022-09-20T07:25:55.447Z,1012.90
2022-09-20T07:26:55.413Z,1012.94
2022-09-20T07:27:55.410Z,1012.93
2022-09-20T07:28:55.449Z,1012.94
2022-09-20T07:29:55.369Z,1012.98
2022-09-20T07:30:55.389Z,1012.97
2022-09-20T07:31:55.355Z,1012.98
2022-09-20T07:32:55.350Z,1012.94
2022-09-20T07:33:55.344Z,1012.99
2022-09-20T07:34:55.350Z,1012.99
2022-09-20T07:35:55.317Z,1012.98
2022-09-20T07:36:55.337Z,1013.00
2022-09-20T07:37:55.281Z,1013.01
2022-09-20T07:38:55.348Z,1013.03
2022-09-20T07:39:55.282Z,1012.99
2022-09-20T07:40:55.267Z,1013.06
2022-09-20T07:41:55.233Z,1013.03
2022-09-20T07:42:56.322Z,1013.06
2022-09-20T07:43:55.273Z,1013.02
2022-09-20T07:44:55.198Z,1013.06
2022-09-20T07:45:55.251Z,1013.08
2022-09-20T07:46:55.217Z,1013.07
2022-09-20T07:47:55.182Z,1013.07
2022-09-20T07:48:55.168Z,1013.11
2022-09-20T07:49:55.148Z,1013.10
2022-09-20T07:50:55.154Z,1013.09
2022-09-20T07:51:55.129Z,1013.12
2022-09-20T07:52:55.133Z,1013.10
2022-09-20T07:53:55.188Z,1013.13
2022-09-20T07:54:55.087Z,1013.14
2022-09-20T07:55:55.087Z,1013.16
2022-09-20T07:56:55.061Z,1013.14
2022-09-20T07:57:55.152Z,1013.19
2022-09-20T07:58:55.054Z,1013.20
2022-09-20T07:59:55.070Z,1013.25
2022-09-20T08:00:55.040Z,1013.22
2022-09-20T08:01:55.073Z,1013.20
2022-09-20T08:02:55.004Z,1013.24
2022-09-20T08:03:55.018Z,1013.21
2022-09-20T08:04:54.970Z,1013.21
2022-09-20T08:05:54.980Z,1013.24
2022-09-20T08:06:54.998Z,1013.21
2022-09-20T08:07:54.989Z,1013.25
2022-09-20T08:08:55.017Z,1013.29
2022-09-20T08:09:54.932Z,1013.26
2022-09-20T08:10:54.976Z,1013.25
2022-09-20T08:11:55.147Z,1013.28
2022-09-20T08:14:11.366Z,1013.29
2022-09-20T08:14:55.860Z,1013.26
2022-09-20T08:15:54.997Z,1013.27
2022-09-20T08:16:54.915Z,1013.21
2022-09-20T08:17:54.841Z,1013.29
2022-09-20T08:18:54.870Z,1013.24
2022-09-20T08:19:54.807Z,1013.23
2022-09-20T08:20:55.083Z,1013.32
2022-09-20T08:21:54.892Z,1013.31
2022-09-20T08:23:19.381Z,1013.32
2022-09-20T08:23:55.840Z,1013.36
2022-09-20T08:24:54.778Z,1013.32
2022-09-20T08:25:54.849Z,1013.36
2022-09-20T08:26:54.732Z,1013.34
2022-09-20T08:27:54.716Z,1013.34
2022-09-20T08:28:54.803Z,1013.35
2022-09-20T08:29:54.745Z,1013.33
2022-09-20T08:30:54.681Z,1013.38
2022-09-20T08:31:54.773Z,1013.41
2022-09-20T08:32:54.678Z,1013.39
2022-09-20T08:33:54.710Z,1013.33
2022-09-20T08:34:54.660Z,1013.38
2022-09-20T08:35:57.775Z,1013.36
2022-09-20T08:36:54.618Z,1013.36
2022-09-20T08:37:55.219Z,1013.36
2022-09-20T08:39:57.640Z,1013.41
2022-09-20T08:40:54.595Z,1013.43
2022-09-20T08:41:54.599Z,1013.43
2022-09-20T08:42:54.548Z,1013.48
2022-09-20T08:43:54.659Z,1013.42
2022-09-20T08:44:58.172Z,1013.45
2022-09-20T08:45:54.609Z,1013.43
2022-09-20T08:46:54.501Z,1013.36
2022-09-20T08:47:58.495Z,1013.39
2022-09-20T08:48:54.501Z,1013.42
2022-09-20T08:49:57.432Z,1013.41
2022-09-20T08:50:54.467Z,1013.48
2022-09-20T08:51:54.507Z,1013.50
2022-09-20T08:53:00.208Z,1013.46
2022-09-20T08:53:55.440Z,1013.51
2022-09-20T08:54:54.445Z,1013.49
2022-09-20T08:55:54.393Z,1013.51
2022-09-20T08:56:54.374Z,1013.50
2022-09-20T08:57:54.374Z,1013.49
2022-09-20T08:58:54.411Z,1013.52
2022-09-20T08:59:54.349Z,1013.51
2022-09-20T09:00:54.419Z,1013.50
2022-09-20T09:01:54.377Z,1013.49
2022-09-20T09:02:54.315Z,1013.53
2022-09-20T09:03:54.376Z,1013.52
2022-09-20T09:04:54.295Z,1013.54
2022-09-20T09:05:54.298Z,1013.52
2022-09-20T09:06:54.266Z,1013.44
2022-09-20T09:07:54.269Z,1013.56
2022-09-20T09:08:54.260Z,1013.53
2022-09-20T09:09:54.256Z,1013.55
2022-09-20T09:10:54.323Z,1013.49
2022-09-20T09:11:54.242Z,1013.48
2022-09-20T09:12:54.209Z,1013.51
2022-09-20T09:13:54.282Z,1013.48
2022-09-20T09:14:54.174Z,1013.54
2022-09-20T09:15:54.185Z,1013.50
2022-09-20T09:16:54.179Z,1013.54
2022-09-20T09:17:54.148Z,1013.51
2022-09-20T09:18:54.153Z,1013.50
2022-09-20T09:19:54.147Z,1013.55
2022-09-20T09:20:54.123Z,1013.50
2022-09-20T09:21:54.100Z,1013.52
2022-09-20T09:22:54.098Z,1013.55
2022-09-20T09:23:54.101Z,1013.57
2022-09-20T09:24:54.077Z,1013.55
2022-09-20T09:25:54.115Z,1013.55
2022-09-20T09:26:54.053Z,1013.56
2022-09-20T09:27:54.029Z,1013.55
2022-09-20T09:28:54.044Z,1013.51
2022-09-20T09:29:54.026Z,1013.57
2022-09-20T09:30:53.988Z,1013.59
2022-09-20T09:31:54.062Z,1013.53
2022-09-20T09:32:53.975Z,1013.55
2022-09-20T09:33:53.975Z,1013.55
2022-09-20T09:34:53.953Z,1013.58
2022-09-20T09:35:53.979Z,1013.46
2022-09-20T09:36:53.926Z,1013.47
2022-09-20T09:37:53.916Z,1013.53
2022-09-20T09:38:53.935Z,1013.53
2022-09-20T09:39:53.912Z,1013.50
2022-09-20T09:40:53.880Z,1013.56
2022-09-20T09:41:53.887Z,1013.53
2022-09-20T09:42:53.946Z,1013.55
2022-09-20T09:43:53.921Z,1013.58
2022-09-20T09:44:53.832Z,1013.49
2022-09-20T09:45:53.908Z,1013.48
2022-09-20T09:46:53.824Z,1013.48
2022-09-20T09:47:53.843Z,1013.47
2022-09-20T09:48:53.800Z,1013.44
2022-09-20T09:49:59.014Z,1013.47
2022-09-20T09:50:54.810Z,1013.46
2022-09-20T09:51:53.785Z,1013.49
2022-09-20T09:52:53.749Z,1013.47
2022-09-20T09:53:53.749Z,1013.42
2022-09-20T09:54:53.727Z,1013.44
2022-09-20T09:55:53.711Z,1013.38
2022-09-20T09:56:53.732Z,1013.37
2022-09-20T09:57:53.697Z,1013.35
2022-09-20T09:58:53.720Z,1013.35
2022-09-20T09:59:53.665Z,1013.36
2022-09-20T10:00:53.758Z,1013.33
2022-09-20T10:01:53.748Z,1013.37
2022-09-20T10:02:53.676Z,1013.32
2022-09-20T10:03:53.663Z,1013.27
2022-09-20T10:04:53.597Z,1013.40
2022-09-20T10:05:53.604Z,1013.41
2022-09-20T10:06:53.577Z,1013.32
2022-09-20T10:07:53.600Z,1013.29
2022-09-20T10:08:53.591Z,1013.38
2022-09-20T10:09:53.569Z,1013.32
2022-09-20T10:10:53.534Z,1013.37
2022-09-20T10:11:53.526Z,1013.34
2022-09-20T10:12:53.528Z,1013.30
2022-09-20T10:13:53.549Z,1013.34
2022-09-20T10:14:53.554Z,1013.37
2022-09-20T10:15:53.478Z,1013.32
2022-09-20T10:16:53.561Z,1013.32
2022-09-20T10:17:53.487Z,1013.37
2022-09-20T10:18:53.472Z,1013.36
2022-09-20T10:19:53.480Z,1013.33
2022-09-20T10:20:53.449Z,1013.40
2022-09-20T10:21:53.421Z,1013.42
2022-09-20T10:23:24.163Z,1013.47
2022-09-20T10:24:08.856Z,1013.43
2022-09-20T10:24:54.374Z,1013.38
2022-09-20T10:25:53.372Z,1013.45
2022-09-20T10:26:53.383Z,1013.37
2022-09-20T10:27:53.347Z,1013.39
2022-09-20T10:28:53.362Z,1013.42
2022-09-20T10:29:53.328Z,1013.43
2022-09-20T10:30:53.332Z,1013.43
2022-09-20T10:31:53.312Z,1013.38
2022-09-20T10:32:53.312Z,1013.46
2022-09-20T10:33:53.286Z,1013.44
2022-09-20T10:34:53.313Z,1013.48
2022-09-20T10:35:53.267Z,1013.45
2022-09-20T10:36:53.249Z,1013.46
2022-09-20T10:37:53.238Z,1013.53
2022-09-20T10:38:53.321Z,1013.47
2022-09-20T10:39:53.244Z,1013.50
2022-09-20T10:40:53.203Z,1013.50
2022-09-20T10:41:53.189Z,1013.56
2022-09-20T10:42:53.190Z,1013.55
2022-09-20T10:43:53.263Z,1013.59
2022-09-20T10:44:53.210Z,1013.63
2022-09-20T10:46:14.379Z,1013.62
2022-09-20T10:46:54.202Z,1013.65
2022-09-20T10:47:53.126Z,1013.67
2022-09-20T10:48:53.116Z,1013.74
2022-09-20T10:49:53.135Z,1013.74
2022-09-20T10:50:53.111Z,1013.72
2022-09-20T10:51:53.086Z,1013.78
2022-09-20T10:52:53.085Z,1013.80
2022-09-20T10:53:53.070Z,1013.76
2022-09-20T10:54:53.065Z,1013.79
2022-09-20T10:55:53.045Z,1013.73
2022-09-20T10:56:53.023Z,1013.80
2022-09-20T10:57:53.028Z,1013.79
2022-09-20T10:58:53.132Z,1013.80
2022-09-20T10:59:53.017Z,1013.82
2022-09-20T11:00:53.065Z,1013.84
2022-09-20T11:01:52.999Z,1013.85
2022-09-20T11:02:52.949Z,1013.88
2022-09-20T11:03:52.973Z,1013.98
2022-09-20T11:04:52.960Z,1014.13
2022-09-20T11:05:52.928Z,1014.36
2022-09-20T11:06:52.903Z,1014.36
2022-09-20T11:07:52.896Z,1014.38
2022-09-20T11:08:52.893Z,1014.36
2022-09-20T11:09:52.944Z,1014.32
2022-09-20T11:10:52.861Z,1014.32
2022-09-20T11:11:52.868Z,1014.30
2022-09-20T11:12:52.839Z,1014.28
2022-09-20T11:13:52.911Z,1014.26
2022-09-20T11:14:52.858Z,1014.27
2022-09-20T11:15:52.808Z,1014.31
2022-09-20T11:16:52.870Z,1014.29
2022-09-20T11:17:52.781Z,1014.28
2022-09-20T11:18:52.932Z,1014.30
2022-09-20T11:19:52.820Z,1014.28
2022-09-20T11:20:52.748Z,1014.24
2022-09-20T11:21:52.759Z,1014.20
2022-09-20T11:22:52.743Z,1014.21
2022-09-20T11:23:52.712Z,1014.15
2022-09-20T11:24:52.755Z,1014.12
2022-09-20T11:25:52.687Z,1014.13
2022-09-20T11:26:52.677Z,1014.10
2022-09-20T11:27:52.842Z,1014.07
2022-09-20T11:28:52.660Z,1014.09
2022-09-20T11:29:52.687Z,1014.09
2022-09-20T11:30:52.627Z,1014.08
2022-09-20T11:31:52.712Z,1014.11
2022-09-20T11:32:52.624Z,1014.07
2022-09-20T11:33:52.714Z,1014.12
2022-09-20T11:34:52.595Z,1014.07
2022-09-20T11:35:52.569Z,1014.06
2022-09-20T11:36:52.566Z,1014.10
2022-09-20T11:37:52.549Z,1014.20
2022-09-20T11:38:53.516Z,1014.19
2022-09-20T11:39:52.540Z,1014.21
2022-09-20T11:40:52.518Z,1014.15
2022-09-20T11:41:52.521Z,1014.17
2022-09-20T11:42:52.489Z,1014.18
2022-09-20T11:43:52.501Z,1014.15
2022-09-20T11:44:52.493Z,1014.21
2022-09-20T11:45:52.490Z,1014.20
2022-09-20T11:46:52.464Z,1014.20
2022-09-20T11:47:55.303Z,1014.26
2022-09-20T11:48:52.518Z,1014.29
2022-09-20T11:49:52.429Z,1014.28
2022-09-20T11:50:52.441Z,1014.28
2022-09-20T11:51:52.388Z,1014.33
2022-09-20T11:52:52.373Z,1014.32
2022-09-20T11:53:52.363Z,1014.33
2022-09-20T11:54:52.370Z,1014.27
2022-09-20T11:55:52.336Z,1014.33
2022-09-20T11:56:52.368Z,1014.36
2022-09-20T11:57:52.344Z,1014.28
2022-09-20T11:58:52.321Z,1014.30
2022-09-20T11:59:52.342Z,1014.33
2022-09-20T12:00:52.300Z,1014.34
2022-09-20T12:01:52.332Z,1014.35
2022-09-20T12:02:52.445Z,1014.31
2022-09-20T12:04:04.071Z,1014.32
2022-09-20T12:04:53.280Z,1014.30
2022-09-20T12:05:52.255Z,1014.33
2022-09-20T12:06:52.225Z,1014.32